sensor_id;sensor_type;location;lat;lon;timestamp;pressure;altitude;pressure_sealevel;temperature;humidity
73457;BME280;61691;53.072;6.582;2023-02-01T00:00:53;101591.72;;;6.29;70.97
73457;BME280;61691;53.072;6.582;2023-02-01T00:03:20;101576.28;;;6.23;71.28
73457;BME280;61691;53.072;6.582;2023-02-01T00:05:58;101567.06;;;6.30;71.23
73457;BME280;61691;53.072;6.582;2023-02-01T00:08:25;101561.97;;;6.27;71.21
73457;BME280;61691;53.072;6.582;2023-02-01T00:11:06;101574.03;;;6.31;70.82
73457;BME280;61691;53.072;6.582;2023-02-01T00:13:35;101570.44;;;6.32;70.64
73457;BME280;61691;53.072;6.582;2023-02-01T00:16:05;101562.66;;;6.31;70.54
73457;BME280;61691;53.072;6.582;2023-02-01T00:18:32;101545.00;;;6.17;70.99
73457;BME280;61691;53.072;6.582;2023-02-01T00:21:00;101540.72;;;6.16;70.95
73457;BME280;61691;53.072;6.582;2023-02-01T00:23:27;101556.22;;;6.20;70.85
73457;BME280;61691;53.072;6.582;2023-02-01T00:25:53;101539.75;;;6.17;70.81
73457;BME280;61691;53.072;6.582;2023-02-01T00:28:20;101552.38;;;6.26;70.54
73457;BME280;61691;53.072;6.582;2023-02-01T00:30:56;101504.75;;;6.01;70.64
73457;BME280;61691;53.072;6.582;2023-02-01T00:33:23;101555.41;;;6.34;70.90
73457;BME280;61691;53.072;6.582;2023-02-01T00:35:50;101564.31;;;6.32;70.36
73457;BME280;61691;53.072;6.582;2023-02-01T00:38:17;101551.28;;;6.30;70.73
73457;BME280;61691;53.072;6.582;2023-02-01T00:40:43;101534.31;;;6.20;70.45
73457;BME280;61691;53.072;6.582;2023-02-01T00:43:10;101556.19;;;6.36;70.51
73457;BME280;61691;53.072;6.582;2023-02-01T00:45:37;101556.63;;;6.29;70.53
73457;BME280;61691;53.072;6.582;2023-02-01T00:48:04;101552.00;;;6.32;70.74
73457;BME280;61691;53.072;6.582;2023-02-01T00:50:31;101539.41;;;6.23;70.44
73457;BME280;61691;53.072;6.582;2023-02-01T00:52:57;101499.38;;;6.02;70.21
73457;BME280;61691;53.072;6.582;2023-02-01T00:55:24;101546.00;;;6.30;70.33
73457;BME280;61691;53.072;6.582;2023-02-01T00:57:51;101560.59;;;6.36;70.44
73457;BME280;61691;53.072;6.582;2023-02-01T01:00:18;101532.56;;;6.35;70.65
73457;BME280;61691;53.072;6.582;2023-02-01T01:02:45;101540.38;;;6.36;70.24
73457;BME280;61691;53.072;6.582;2023-02-01T01:05:12;101528.69;;;6.26;70.77
73457;BME280;61691;53.072;6.582;2023-02-01T01:07:39;101511.09;;;6.27;70.33
73457;BME280;61691;53.072;6.582;2023-02-01T01:10:08;101521.72;;;6.25;70.45
73457;BME280;61691;53.072;6.582;2023-02-01T01:12:34;101542.94;;;6.38;70.28
73457;BME280;61691;53.072;6.582;2023-02-01T01:15:02;101528.84;;;6.39;70.15
73457;BME280;61691;53.072;6.582;2023-02-01T01:17:31;101532.28;;;6.39;70.15
73457;BME280;61691;53.072;6.582;2023-02-01T01:19:57;101512.34;;;6.35;70.24
73457;BME280;61691;53.072;6.582;2023-02-01T01:22:25;101519.03;;;6.41;70.36
73457;BME280;61691;53.072;6.582;2023-02-01T01:24:52;101478.47;;;6.15;70.16
73457;BME280;61691;53.072;6.582;2023-02-01T01:27:19;101503.69;;;6.33;70.48
73457;BME280;61691;53.072;6.582;2023-02-01T01:29:49;101508.41;;;6.42;70.57
73457;BME280;61691;53.072;6.582;2023-02-01T01:32:16;101486.38;;;6.29;70.51
73457;BME280;61691;53.072;6.582;2023-02-01T01:34:43;101505.22;;;6.37;70.65
73457;BME280;61691;53.072;6.582;2023-02-01T01:37:10;101494.28;;;6.29;70.66
73457;BME280;61691;53.072;6.582;2023-02-01T01:39:36;101501.66;;;6.38;70.60
73457;BME280;61691;53.072;6.582;2023-02-01T01:42:03;101486.88;;;6.36;70.65
73457;BME280;61691;53.072;6.582;2023-02-01T01:47:35;101432.47;;;6.06;70.70
73457;BME280;61691;53.072;6.582;2023-02-01T01:50:06;101478.91;;;6.51;70.53
73457;BME280;61691;53.072;6.582;2023-02-01T01:52:34;101487.19;;;6.45;71.11
73457;BME280;61691;53.072;6.582;2023-02-01T01:55:03;101436.34;;;6.15;71.20
73457;BME280;61691;53.072;6.582;2023-02-01T01:57:37;101481.69;;;6.48;71.59
73457;BME280;61691;53.072;6.582;2023-02-01T02:00:15;101467.28;;;6.40;71.30
73457;BME280;61691;53.072;6.582;2023-02-01T02:02:46;101481.16;;;6.43;71.74
73457;BME280;61691;53.072;6.582;2023-02-01T02:05:15;101463.25;;;6.34;72.06
73457;BME280;61691;53.072;6.582;2023-02-01T02:07:46;101476.81;;;6.42;71.86
73457;BME280;61691;53.072;6.582;2023-02-01T02:10:15;101466.09;;;6.45;72.39
73457;BME280;61691;53.072;6.582;2023-02-01T02:12:46;101475.88;;;6.43;71.95
73457;BME280;61691;53.072;6.582;2023-02-01T02:15:15;101454.78;;;6.29;72.26
73457;BME280;61691;53.072;6.582;2023-02-01T02:18:10;101464.00;;;6.36;73.06
73457;BME280;61691;53.072;6.582;2023-02-01T02:21:52;101475.31;;;6.38;72.78
73457;BME280;61691;53.072;6.582;2023-02-01T02:31:46;101444.25;;;6.29;74.10
73457;BME280;61691;53.072;6.582;2023-02-01T02:34:55;101441.81;;;6.26;74.11
73457;BME280;61691;53.072;6.582;2023-02-01T02:37:40;101444.81;;;6.20;74.82
73457;BME280;61691;53.072;6.582;2023-02-01T02:40:31;101423.91;;;6.17;74.95
73457;BME280;61691;53.072;6.582;2023-02-01T02:43:08;101424.13;;;6.14;74.46
73457;BME280;61691;53.072;6.582;2023-02-01T02:46:03;101413.38;;;6.17;74.85
73457;BME280;61691;53.072;6.582;2023-02-01T02:49:11;101411.53;;;6.19;74.30
73457;BME280;61691;53.072;6.582;2023-02-01T02:51:41;101415.84;;;6.20;74.59
73457;BME280;61691;53.072;6.582;2023-02-01T02:54:32;101412.47;;;6.18;75.68
73457;BME280;61691;53.072;6.582;2023-02-01T02:57:34;101412.66;;;6.15;75.37
73457;BME280;61691;53.072;6.582;2023-02-01T03:00:27;101414.06;;;6.20;74.97
73457;BME280;61691;53.072;6.582;2023-02-01T03:03:13;101417.56;;;6.21;74.99
73457;BME280;61691;53.072;6.582;2023-02-01T03:05:59;101410.41;;;6.23;75.32
73457;BME280;61691;53.072;6.582;2023-02-01T03:08:28;101400.81;;;6.22;75.06
73457;BME280;61691;53.072;6.582;2023-02-01T03:11:04;101418.03;;;6.28;74.90
73457;BME280;61691;53.072;6.582;2023-02-01T03:13:41;101407.41;;;6.29;75.10
73457;BME280;61691;53.072;6.582;2023-02-01T03:16:34;101409.09;;;6.30;75.19
73457;BME280;61691;53.072;6.582;2023-02-01T03:19:08;101385.50;;;6.29;75.33
73457;BME280;61691;53.072;6.582;2023-02-01T03:21:55;101389.53;;;6.34;74.81
73457;BME280;61691;53.072;6.582;2023-02-01T03:24:29;101338.56;;;6.07;74.91
73457;BME280;61691;53.072;6.582;2023-02-01T03:27:05;101338.56;;;6.07;75.19
73457;BME280;61691;53.072;6.582;2023-02-01T03:29:45;101377.31;;;6.33;74.91
73457;BME280;61691;53.072;6.582;2023-02-01T03:32:16;101362.44;;;6.32;75.23
73457;BME280;61691;53.072;6.582;2023-02-01T03:34:43;101354.94;;;6.26;75.00
73457;BME280;61691;53.072;6.582;2023-02-01T03:37:12;101368.47;;;6.34;75.28
73457;BME280;61691;53.072;6.582;2023-02-01T03:39:49;101374.28;;;6.39;74.98
73457;BME280;61691;53.072;6.582;2023-02-01T03:42:37;101354.53;;;6.32;75.21
73457;BME280;61691;53.072;6.582;2023-02-01T03:45:12;101369.78;;;6.41;75.05
73457;BME280;61691;53.072;6.582;2023-02-01T03:47:43;101332.16;;;6.25;74.61
73457;BME280;61691;53.072;6.582;2023-02-01T03:50:14;101357.38;;;6.43;74.75
73457;BME280;61691;53.072;6.582;2023-02-01T03:52:47;101373.00;;;6.46;75.12
73457;BME280;61691;53.072;6.582;2023-02-01T03:55:17;101362.34;;;6.48;74.66
73457;BME280;61691;53.072;6.582;2023-02-01T03:57:52;101343.44;;;6.41;74.60
73457;BME280;61691;53.072;6.582;2023-02-01T04:00:25;101361.50;;;6.47;74.62
73457;BME280;61691;53.072;6.582;2023-02-01T04:02:53;101348.31;;;6.47;74.99
73457;BME280;61691;53.072;6.582;2023-02-01T04:05:20;101324.63;;;6.33;74.71
73457;BME280;61691;53.072;6.582;2023-02-01T04:07:47;101350.88;;;6.49;74.58
73457;BME280;61691;53.072;6.582;2023-02-01T04:10:14;101355.28;;;6.48;74.92
73457;BME280;61691;53.072;6.582;2023-02-01T04:12:45;101325.94;;;6.40;74.79
73457;BME280;61691;53.072;6.582;2023-02-01T04:15:12;101352.28;;;6.40;75.03
73457;BME280;61691;53.072;6.582;2023-02-01T04:17:38;101342.91;;;6.36;75.45
73457;BME280;61691;53.072;6.582;2023-02-01T04:20:05;101320.44;;;6.31;75.41
73457;BME280;61691;53.072;6.582;2023-02-01T04:22:32;101336.88;;;6.34;75.35
73457;BME280;61691;53.072;6.582;2023-02-01T04:24:59;101344.50;;;6.39;75.46
73457;BME280;61691;53.072;6.582;2023-02-01T04:27:26;101313.72;;;6.39;75.48
73457;BME280;61691;53.072;6.582;2023-02-01T04:29:53;101342.22;;;6.33;75.52
73457;BME280;61691;53.072;6.582;2023-02-01T04:32:21;101343.81;;;6.35;75.37
73457;BME280;61691;53.072;6.582;2023-02-01T04:34:48;101290.81;;;6.13;75.71
73457;BME280;61691;53.072;6.582;2023-02-01T04:37:15;101331.59;;;6.34;75.72
73457;BME280;61691;53.072;6.582;2023-02-01T04:39:41;101353.13;;;6.41;75.19
73457;BME280;61691;53.072;6.582;2023-02-01T04:42:08;101336.69;;;6.37;75.40
73457;BME280;61691;53.072;6.582;2023-02-01T04:44:35;101319.22;;;6.22;75.05
73457;BME280;61691;53.072;6.582;2023-02-01T04:47:03;101333.84;;;6.26;75.63
73457;BME280;61691;53.072;6.582;2023-02-01T04:49:30;101345.13;;;6.42;75.54
73457;BME280;61691;53.072;6.582;2023-02-01T04:51:57;101314.69;;;6.24;75.17
73457;BME280;61691;53.072;6.582;2023-02-01T04:54:23;101285.84;;;6.22;75.28
73457;BME280;61691;53.072;6.582;2023-02-01T04:56:50;101291.94;;;6.23;75.02
73457;BME280;61691;53.072;6.582;2023-02-01T04:59:17;101333.00;;;6.40;75.40
73457;BME280;61691;53.072;6.582;2023-02-01T05:01:44;101313.09;;;6.36;74.98
73457;BME280;61691;53.072;6.582;2023-02-01T05:04:13;101326.69;;;6.42;75.28
73457;BME280;61691;53.072;6.582;2023-02-01T05:06:40;101319.38;;;6.33;75.17
73457;BME280;61691;53.072;6.582;2023-02-01T05:09:07;101283.69;;;6.15;75.10
73457;BME280;61691;53.072;6.582;2023-02-01T05:11:34;101321.81;;;6.36;75.24
73457;BME280;61691;53.072;6.582;2023-02-01T05:14:19;101338.19;;;6.41;75.24
73457;BME280;61691;53.072;6.582;2023-02-01T05:16:46;101325.50;;;6.34;75.10
73457;BME280;61691;53.072;6.582;2023-02-01T05:19:13;101340.72;;;6.43;75.36
73457;BME280;61691;53.072;6.582;2023-02-01T05:21:40;101339.88;;;6.42;74.76
73457;BME280;61691;53.072;6.582;2023-02-01T05:24:08;101338.19;;;6.41;75.14
73457;BME280;61691;53.072;6.582;2023-02-01T05:26:47;101350.78;;;6.36;74.73
73457;BME280;61691;53.072;6.582;2023-02-01T05:29:15;101323.63;;;6.21;74.87
73457;BME280;61691;53.072;6.582;2023-02-01T05:31:46;101325.97;;;6.12;75.00
73457;BME280;61691;53.072;6.582;2023-02-01T05:34:15;101364.44;;;6.29;74.86
73457;BME280;61691;53.072;6.582;2023-02-01T05:36:42;101360.66;;;6.33;75.18
73457;BME280;61691;53.072;6.582;2023-02-01T05:39:09;101308.09;;;5.89;74.73
73457;BME280;61691;53.072;6.582;2023-02-01T05:41:36;101270.69;;;5.83;74.81
73457;BME280;61691;53.072;6.582;2023-02-01T05:44:04;101349.94;;;6.21;75.25
73457;BME280;61691;53.072;6.582;2023-02-01T05:46:31;101346.94;;;6.28;75.06
73457;BME280;61691;53.072;6.582;2023-02-01T05:48:59;101356.44;;;6.30;75.01
73457;BME280;61691;53.072;6.582;2023-02-01T05:51:25;101348.06;;;6.38;74.93
73457;BME280;61691;53.072;6.582;2023-02-01T05:53:52;101367.91;;;6.43;74.74
73457;BME280;61691;53.072;6.582;2023-02-01T05:56:19;101362.34;;;6.48;74.84
73457;BME280;61691;53.072;6.582;2023-02-01T05:58:46;101360.75;;;6.45;74.94
73457;BME280;61691;53.072;6.582;2023-02-01T06:01:12;101334.63;;;6.28;74.52
73457;BME280;61691;53.072;6.582;2023-02-01T06:03:39;101332.44;;;6.35;74.74
73457;BME280;61691;53.072;6.582;2023-02-01T06:06:06;101378.59;;;6.54;74.96
73457;BME280;61691;53.072;6.582;2023-02-01T06:08:34;101324.00;;;6.30;74.19
73457;BME280;61691;53.072;6.582;2023-02-01T06:11:04;101351.53;;;6.52;74.28
73457;BME280;61691;53.072;6.582;2023-02-01T06:13:31;101355.56;;;6.58;74.27
73457;BME280;61691;53.072;6.582;2023-02-01T06:16:01;101356.59;;;6.55;74.49
73457;BME280;61691;53.072;6.582;2023-02-01T06:18:29;101354.63;;;6.59;74.09
73457;BME280;61691;53.072;6.582;2023-02-01T06:20:58;101360.53;;;6.63;74.48
73457;BME280;61691;53.072;6.582;2023-02-01T06:23:28;101354.53;;;6.60;74.53
73457;BME280;61691;53.072;6.582;2023-02-01T06:26:03;101342.88;;;6.50;74.29
73457;BME280;61691;53.072;6.582;2023-02-01T06:28:32;101331.88;;;6.44;74.22
73457;BME280;61691;53.072;6.582;2023-02-01T06:31:06;101358.28;;;6.56;74.25
73457;BME280;61691;53.072;6.582;2023-02-01T06:33:34;101332.44;;;6.35;73.91
73457;BME280;61691;53.072;6.582;2023-02-01T06:36:03;101361.78;;;6.43;74.41
73457;BME280;61691;53.072;6.582;2023-02-01T06:38:31;101331.06;;;6.15;74.56
73457;BME280;61691;53.072;6.582;2023-02-01T06:40:58;101332.84;;;6.14;74.18
73457;BME280;61691;53.072;6.582;2023-02-01T06:43:26;101343.06;;;6.19;74.20
73457;BME280;61691;53.072;6.582;2023-02-01T06:45:58;101361.72;;;6.30;74.52
73457;BME280;61691;53.072;6.582;2023-02-01T06:48:25;101343.06;;;6.19;74.66
73457;BME280;61691;53.072;6.582;2023-02-01T06:50:52;101348.16;;;6.22;74.56
73457;BME280;61691;53.072;6.582;2023-02-01T06:53:19;101362.81;;;6.26;74.58
73457;BME280;61691;53.072;6.582;2023-02-01T06:56:00;101376.75;;;6.42;74.65
73457;BME280;61691;53.072;6.582;2023-02-01T06:58:29;101376.91;;;6.39;74.72
73457;BME280;61691;53.072;6.582;2023-02-01T07:00:56;101373.00;;;6.46;74.37
73457;BME280;61691;53.072;6.582;2023-02-01T07:03:23;101395.72;;;6.47;74.60
73457;BME280;61691;53.072;6.582;2023-02-01T07:05:50;101360.78;;;6.31;74.34
73457;BME280;61691;53.072;6.582;2023-02-01T07:08:16;101377.97;;;6.37;74.20
73457;BME280;61691;53.072;6.582;2023-02-01T07:10:43;101358.50;;;6.25;74.30
73457;BME280;61691;53.072;6.582;2023-02-01T07:13:10;101400.81;;;6.50;74.60
73457;BME280;61691;53.072;6.582;2023-02-01T07:15:37;101402.50;;;6.51;74.70
73457;BME280;61691;53.072;6.582;2023-02-01T07:18:04;101385.41;;;6.44;74.23
73457;BME280;61691;53.072;6.582;2023-02-01T07:20:31;101407.97;;;6.48;74.50
73457;BME280;61691;53.072;6.582;2023-02-01T07:22:58;101402.31;;;6.54;74.56
73457;BME280;61691;53.072;6.582;2023-02-01T07:25:25;101396.84;;;6.57;74.53
73457;BME280;61691;53.072;6.582;2023-02-01T07:27:51;101385.56;;;6.55;74.70
73457;BME280;61691;53.072;6.582;2023-02-01T07:30:18;101372.50;;;6.54;74.37
73457;BME280;61691;53.072;6.582;2023-02-01T07:32:45;101368.19;;;6.53;74.62
73457;BME280;61691;53.072;6.582;2023-02-01T07:35:12;101379.34;;;6.56;74.69
73457;BME280;61691;53.072;6.582;2023-02-01T07:37:40;101366.94;;;6.58;74.63
73457;BME280;61691;53.072;6.582;2023-02-01T07:40:08;101382.75;;;6.58;74.58
73457;BME280;61691;53.072;6.582;2023-02-01T07:42:34;101360.75;;;6.45;74.15
73457;BME280;61691;53.072;6.582;2023-02-01T07:45:02;101378.59;;;6.54;74.33
73457;BME280;61691;53.072;6.582;2023-02-01T07:47:46;101381.91;;;6.58;74.26
73457;BME280;61691;53.072;6.582;2023-02-01T07:50:13;101391.28;;;6.62;74.28
73457;BME280;61691;53.072;6.582;2023-02-01T07:52:40;101411.16;;;6.68;74.29
73457;BME280;61691;53.072;6.582;2023-02-01T07:55:07;101395.53;;;6.65;74.20
73457;BME280;61691;53.072;6.582;2023-02-01T07:57:34;101371.66;;;6.53;74.54
73457;BME280;61691;53.072;6.582;2023-02-01T08:00:01;101406.84;;;6.67;74.60
73457;BME280;61691;53.072;6.582;2023-02-01T08:02:47;101404.00;;;6.70;74.83
73457;BME280;61691;53.072;6.582;2023-02-01T08:05:14;101404.75;;;6.72;74.80
73457;BME280;61691;53.072;6.582;2023-02-01T08:07:40;101378.97;;;6.63;74.63
73457;BME280;61691;53.072;6.582;2023-02-01T08:10:08;101357.53;;;6.54;74.37
73457;BME280;61691;53.072;6.582;2023-02-01T08:12:37;101371.38;;;6.58;74.28
73457;BME280;61691;53.072;6.582;2023-02-01T08:15:05;101383.88;;;6.69;74.72
73457;BME280;61691;53.072;6.582;2023-02-01T08:17:32;101398.53;;;6.73;74.33
73457;BME280;61691;53.072;6.582;2023-02-01T08:19:58;101397.22;;;6.80;74.61
73457;BME280;61691;53.072;6.582;2023-02-01T08:22:25;101378.78;;;6.66;74.42
73457;BME280;61691;53.072;6.582;2023-02-01T08:24:52;101383.88;;;6.69;74.56
73457;BME280;61691;53.072;6.582;2023-02-01T08:27:28;101378.78;;;6.66;74.32
73457;BME280;61691;53.072;6.582;2023-02-01T08:29:55;101405.78;;;6.83;74.06
73457;BME280;61691;53.072;6.582;2023-02-01T08:32:23;101390.44;;;6.76;74.30
73457;BME280;61691;53.072;6.582;2023-02-01T08:34:50;101372.09;;;6.74;74.19
73457;BME280;61691;53.072;6.582;2023-02-01T08:37:16;101385.91;;;6.78;74.13
73457;BME280;61691;53.072;6.582;2023-02-01T08:39:43;101374.44;;;6.79;74.33
73457;BME280;61691;53.072;6.582;2023-02-01T08:42:13;101381.22;;;6.83;74.13
73457;BME280;61691;53.072;6.582;2023-02-01T08:44:58;101379.31;;;6.85;74.47
73457;BME280;61691;53.072;6.582;2023-02-01T08:47:25;101370.00;;;6.79;74.54
73457;BME280;61691;53.072;6.582;2023-02-01T08:49:52;101360.31;;;6.80;74.08
73457;BME280;61691;53.072;6.582;2023-02-01T08:52:20;101338.34;;;6.67;74.46
73457;BME280;61691;53.072;6.582;2023-02-01T08:54:47;101380.44;;;6.95;74.28
73457;BME280;61691;53.072;6.582;2023-02-01T08:57:14;101370.91;;;6.92;74.73
73457;BME280;61691;53.072;6.582;2023-02-01T08:59:41;101356.56;;;6.84;74.01
73457;BME280;61691;53.072;6.582;2023-02-01T09:02:14;101371.56;;;6.96;73.97
73457;BME280;61691;53.072;6.582;2023-02-01T09:04:42;101341.97;;;6.78;73.83
73457;BME280;61691;53.072;6.582;2023-02-01T09:07:10;101353.44;;;6.91;73.81
73457;BME280;61691;53.072;6.582;2023-02-01T09:09:37;101353.31;;;6.93;74.05
73457;BME280;61691;53.072;6.582;2023-02-01T09:12:05;101329.63;;;6.79;74.00
73457;BME280;61691;53.072;6.582;2023-02-01T09:14:32;101335.25;;;6.87;73.80
73457;BME280;61691;53.072;6.582;2023-02-01T09:16:58;101346.47;;;6.90;73.97
73457;BME280;61691;53.072;6.582;2023-02-01T09:19:25;101337.81;;;6.88;73.78
73457;BME280;61691;53.072;6.582;2023-02-01T09:21:53;101341.06;;;6.92;73.79
73457;BME280;61691;53.072;6.582;2023-02-01T09:24:19;101331.69;;;6.88;74.06
73457;BME280;61691;53.072;6.582;2023-02-01T09:26:46;101328.22;;;6.87;73.87
73457;BME280;61691;53.072;6.582;2023-02-01T09:29:13;101344.47;;;6.94;73.80
73457;BME280;61691;53.072;6.582;2023-02-01T09:31:40;101329.81;;;6.90;73.73
73457;BME280;61691;53.072;6.582;2023-02-01T09:34:19;101305.06;;;6.78;73.60
73457;BME280;61691;53.072;6.582;2023-02-01T09:36:46;101307.63;;;6.80;73.44
73457;BME280;61691;53.072;6.582;2023-02-01T09:39:13;101283.78;;;6.69;73.53
73457;BME280;61691;53.072;6.582;2023-02-01T09:41:46;101309.25;;;6.95;73.62
73457;BME280;61691;53.072;6.582;2023-02-01T09:47:21;101290.13;;;6.79;73.60
73457;BME280;61691;53.072;6.582;2023-02-01T09:50:13;101326.69;;;6.97;73.63
73457;BME280;61691;53.072;6.582;2023-02-01T09:52:48;101325.47;;;6.89;74.04
73457;BME280;61691;53.072;6.582;2023-02-01T09:58:05;101212.38;;;6.32;74.14
73457;BME280;61691;53.072;6.582;2023-02-01T10:00:37;101296.84;;;6.97;74.39
73457;BME280;61691;53.072;6.582;2023-02-01T10:03:11;101289.22;;;6.92;74.82
73457;BME280;61691;53.072;6.582;2023-02-01T10:17:19;101261.84;;;6.68;75.00
73457;BME280;61691;53.072;6.582;2023-02-01T10:20:16;101266.63;;;6.76;75.51
73457;BME280;61691;53.072;6.582;2023-02-01T10:26:16;101261.19;;;6.65;75.23
73457;BME280;61691;53.072;6.582;2023-02-01T10:28:49;101278.72;;;6.78;75.50
73457;BME280;61691;53.072;6.582;2023-02-01T10:31:17;101197.97;;;6.38;75.65
73457;BME280;61691;53.072;6.582;2023-02-01T10:33:51;101265.66;;;6.77;75.82
73457;BME280;61691;53.072;6.582;2023-02-01T10:36:21;101279.78;;;6.76;76.03
73457;BME280;61691;53.072;6.582;2023-02-01T10:38:49;101250.91;;;6.74;75.68
73457;BME280;61691;53.072;6.582;2023-02-01T10:41:22;101213.47;;;6.42;76.00
73457;BME280;61691;53.072;6.582;2023-02-01T10:43:54;101234.41;;;6.58;75.96
73457;BME280;61691;53.072;6.582;2023-02-01T10:46:23;101210.78;;;6.56;75.69
73457;BME280;61691;53.072;6.582;2023-02-01T10:48:53;101249.06;;;6.89;75.81
73457;BME280;61691;53.072;6.582;2023-02-01T10:51:28;101223.72;;;6.74;75.70
73457;BME280;61691;53.072;6.582;2023-02-01T10:54:00;101253.31;;;7.04;75.26
73457;BME280;61691;53.072;6.582;2023-02-01T10:56:29;101222.59;;;6.90;75.47
73457;BME280;61691;53.072;6.582;2023-02-01T10:59:21;101211.41;;;6.87;75.02
73457;BME280;61691;53.072;6.582;2023-02-01T11:01:58;101196.13;;;6.92;75.15
73457;BME280;61691;53.072;6.582;2023-02-01T11:04:26;101243.81;;;7.14;74.83
73457;BME280;61691;53.072;6.582;2023-02-01T11:09:31;101240.47;;;7.12;74.86
73457;BME280;61691;53.072;6.582;2023-02-01T11:12:00;101230.53;;;7.03;74.74
73457;BME280;61691;53.072;6.582;2023-02-01T11:14:37;101250.59;;;7.18;75.22
73457;BME280;61691;53.072;6.582;2023-02-01T11:19:59;101226.53;;;7.10;74.83
73457;BME280;61691;53.072;6.582;2023-02-01T11:22:26;101213.88;;;7.15;74.74
73457;BME280;61691;53.072;6.582;2023-02-01T11:24:55;101214.44;;;7.33;74.84
73457;BME280;61691;53.072;6.582;2023-02-01T11:27:23;101199.75;;;7.16;74.87
73457;BME280;61691;53.072;6.582;2023-02-01T11:29:59;101182.44;;;6.99;74.86
73457;BME280;61691;53.072;6.582;2023-02-01T11:32:27;101221.19;;;7.24;74.92
73457;BME280;61691;53.072;6.582;2023-02-01T11:34:57;101206.31;;;7.23;74.99
73457;BME280;61691;53.072;6.582;2023-02-01T11:37:41;101221.69;;;7.29;74.53
73457;BME280;61691;53.072;6.582;2023-02-01T11:40:36;101235.34;;;7.36;74.53
73457;BME280;61691;53.072;6.582;2023-02-01T11:48:26;101234.38;;;7.37;75.22
73457;BME280;61691;53.072;6.582;2023-02-01T12:04:16;101247.03;;;7.45;75.12
73457;BME280;61691;53.072;6.582;2023-02-01T12:06:57;101256.25;;;7.52;75.10
73457;BME280;61691;53.072;6.582;2023-02-01T12:09:45;101254.88;;;7.59;75.26
73457;BME280;61691;53.072;6.582;2023-02-01T12:12:34;101256.13;;;7.66;74.86
73457;BME280;61691;53.072;6.582;2023-02-01T12:21:22;101263.94;;;7.80;74.24
73457;BME280;61691;53.072;6.582;2023-02-01T12:24:21;101262.47;;;7.89;74.10
73457;BME280;61691;53.072;6.582;2023-02-01T12:32:30;101263.19;;;8.03;73.97
73457;BME280;61691;53.072;6.582;2023-02-01T12:35:14;101247.94;;;8.07;73.73
73457;BME280;61691;53.072;6.582;2023-02-01T12:40:54;101262.00;;;8.07;73.46
73457;BME280;61691;53.072;6.582;2023-02-01T12:43:38;101267.47;;;8.04;73.50
73457;BME280;61691;53.072;6.582;2023-02-01T12:46:14;101261.78;;;7.98;73.22
73457;BME280;61691;53.072;6.582;2023-02-01T12:49:00;101275.53;;;7.90;74.03
73457;BME280;61691;53.072;6.582;2023-02-01T12:51:33;101273.13;;;7.87;74.52
73457;BME280;61691;53.072;6.582;2023-02-01T12:56:44;101253.38;;;7.80;74.20
73457;BME280;61691;53.072;6.582;2023-02-01T12:59:34;101276.16;;;7.94;74.56
73457;BME280;61691;53.072;6.582;2023-02-01T13:02:45;101267.91;;;7.98;74.79
73457;BME280;61691;53.072;6.582;2023-02-01T13:05:18;101270.88;;;8.06;75.09
73457;BME280;61691;53.072;6.582;2023-02-01T13:07:51;101273.81;;;8.14;74.67
73457;BME280;61691;53.072;6.582;2023-02-01T13:10:24;101275.31;;;8.19;74.07
73457;BME280;61691;53.072;6.582;2023-02-01T13:13:14;101249.53;;;8.09;73.97
73457;BME280;61691;53.072;6.582;2023-02-01T13:18:45;101276.78;;;8.10;73.57
73457;BME280;61691;53.072;6.582;2023-02-01T13:21:31;101281.84;;;8.13;73.59
73457;BME280;61691;53.072;6.582;2023-02-01T13:24:00;101229.06;;;8.00;72.98
73457;BME280;61691;53.072;6.582;2023-02-01T13:26:27;101258.41;;;8.08;73.31
73457;BME280;61691;53.072;6.582;2023-02-01T13:28:59;101235.22;;;7.88;72.80
73457;BME280;61691;53.072;6.582;2023-02-01T13:34:49;101256.09;;;8.04;73.39
73457;BME280;61691;53.072;6.582;2023-02-01T13:37:29;101281.66;;;8.03;72.99
73457;BME280;61691;53.072;6.582;2023-02-01T13:43:26;101286.09;;;8.03;73.28
73457;BME280;61691;53.072;6.582;2023-02-01T13:45:57;101301.53;;;7.96;72.99
73457;BME280;61691;53.072;6.582;2023-02-01T13:51:01;101296.25;;;7.96;73.26
73457;BME280;61691;53.072;6.582;2023-02-01T13:53:36;101299.41;;;8.01;73.23
73457;BME280;61691;53.072;6.582;2023-02-01T13:56:18;101271.31;;;7.75;73.35
73457;BME280;61691;53.072;6.582;2023-02-01T13:58:46;101297.50;;;8.03;73.11
73457;BME280;61691;53.072;6.582;2023-02-01T14:03:58;101311.22;;;8.08;72.89
73457;BME280;61691;53.072;6.582;2023-02-01T14:17:29;101303.63;;;8.04;73.43
73457;BME280;61691;53.072;6.582;2023-02-01T14:19:32;101312.25;;;8.06;72.71
73457;BME280;61691;53.072;6.582;2023-02-01T14:24:55;101300.25;;;7.89;72.78
73457;BME280;61691;53.072;6.582;2023-02-01T14:27:28;101327.25;;;8.05;72.80
73457;BME280;61691;53.072;6.582;2023-02-01T14:29:58;101328.97;;;8.06;73.08
73457;BME280;61691;53.072;6.582;2023-02-01T14:32:33;101290.66;;;7.88;72.77
73457;BME280;61691;53.072;6.582;2023-02-01T14:35:02;101343.41;;;8.13;73.26
73457;BME280;61691;53.072;6.582;2023-02-01T14:37:37;101279.97;;;7.90;73.01
73457;BME280;61691;53.072;6.582;2023-02-01T14:40:16;101332.97;;;8.12;73.02
73457;BME280;61691;53.072;6.582;2023-02-01T14:42:49;101355.56;;;8.16;72.83
73457;BME280;61691;53.072;6.582;2023-02-01T14:50:44;101330.22;;;8.01;72.03
73457;BME280;61691;53.072;6.582;2023-02-01T14:55:53;101344.38;;;8.12;72.30
73457;BME280;61691;53.072;6.582;2023-02-01T15:04:10;101351.97;;;8.04;72.31
73457;BME280;61691;53.072;6.582;2023-02-01T15:06:52;101348.28;;;7.94;71.97
73457;BME280;61691;53.072;6.582;2023-02-01T15:09:38;101340.06;;;7.86;71.70
73457;BME280;61691;53.072;6.582;2023-02-01T15:14:46;101340.16;;;7.97;71.08
73457;BME280;61691;53.072;6.582;2023-02-01T15:17:21;101330.34;;;7.87;71.45
73457;BME280;61691;53.072;6.582;2023-02-01T15:19:59;101324.84;;;7.77;71.33
73457;BME280;61691;53.072;6.582;2023-02-01T15:22:29;101370.25;;;8.07;71.66